createdAt,value
2022-10-22T00:01:36.821Z,10.10
2022-10-22T00:05:40.678Z,9.90
2022-10-22T00:09:44.087Z,9.90
2022-10-22T00:13:48.259Z,9.80
2022-10-22T00:17:52.964Z,9.80
2022-10-22T00:21:56.265Z,9.80
2022-10-22T00:25:59.575Z,9.80
2022-10-22T00:30:02.960Z,9.90
2022-10-22T00:34:07.657Z,10.00
2022-10-22T00:38:10.993Z,10.00
2022-10-22T00:42:19.058Z,9.90
2022-10-22T00:46:22.347Z,9.90
2022-10-22T00:50:31.208Z,10.00
2022-10-22T00:54:35.269Z,10.00
2022-10-22T00:58:43.073Z,9.90
2022-10-22T01:02:46.581Z,9.80
2022-10-22T01:06:52.080Z,9.70
2022-10-22T01:11:04.141Z,9.60
2022-10-22T01:15:17.109Z,9.60
2022-10-22T01:19:35.733Z,9.50
2022-10-22T01:24:22.700Z,9.40
2022-10-22T01:28:44.239Z,9.20
2022-10-22T01:32:50.719Z,9.20
2022-10-22T01:36:55.944Z,9.10
2022-10-22T01:41:00.599Z,9.00
2022-10-22T01:45:12.962Z,9.00
2022-10-22T01:49:24.736Z,9.00
2022-10-22T01:53:38.766Z,8.90
2022-10-22T01:57:51.593Z,8.80
2022-10-22T02:02:03.552Z,8.70
2022-10-22T02:06:13.336Z,8.70
2022-10-22T02:10:18.967Z,8.70
2022-10-22T02:14:23.083Z,8.60
2022-10-22T02:18:31.495Z,8.60
2022-10-22T02:22:37.322Z,8.60
2022-10-22T02:26:44.529Z,8.60
2022-10-22T02:30:54.993Z,8.60
2022-10-22T02:35:01.847Z,8.60
2022-10-22T02:39:06.050Z,8.50
2022-10-22T02:43:10.557Z,8.50
2022-10-22T02:47:13.834Z,8.60
2022-10-22T02:51:18.536Z,8.60
2022-10-22T02:55:21.821Z,8.50
2022-10-22T02:59:25.395Z,8.40
2022-10-22T03:03:28.831Z,8.40
2022-10-22T03:07:33.673Z,8.40
2022-10-22T03:11:37.006Z,8.40
2022-10-22T03:15:40.712Z,8.30
2022-10-22T03:19:50.222Z,8.30
2022-10-22T03:23:55.896Z,8.30
2022-10-22T03:28:04.344Z,8.30
2022-10-22T03:32:07.729Z,8.40
2022-10-22T03:36:11.543Z,8.30
2022-10-22T03:40:16.398Z,8.30
2022-10-22T03:44:19.896Z,8.30
2022-10-22T03:48:23.270Z,8.30
2022-10-22T03:52:26.604Z,8.20
2022-10-22T03:56:31.867Z,8.20
2022-10-22T04:00:36.394Z,8.10
2022-10-22T04:04:40.127Z,8.10
2022-10-22T04:08:45.369Z,8.10
2022-10-22T04:12:50.485Z,8.00
2022-10-22T04:16:53.798Z,8.00
2022-10-22T04:20:57.166Z,7.80
2022-10-22T04:25:00.472Z,7.90
2022-10-22T04:29:05.179Z,7.80
2022-10-22T04:33:08.443Z,7.80
2022-10-22T04:37:11.786Z,7.70
2022-10-22T04:41:17.656Z,7.70
2022-10-22T04:45:22.330Z,7.70
2022-10-22T04:49:25.902Z,7.70
2022-10-22T04:53:29.521Z,7.70
2022-10-22T04:57:33.157Z,7.60
2022-10-22T05:01:42.734Z,7.60
2022-10-22T05:05:46.511Z,7.60
2022-10-22T05:09:49.805Z,7.50
2022-10-22T05:13:53.430Z,7.50
2022-10-22T05:17:58.129Z,7.50
2022-10-22T05:22:02.800Z,7.60
2022-10-22T05:26:07.878Z,7.80
2022-10-22T05:30:11.861Z,7.90
2022-10-22T05:34:17.427Z,7.90
2022-10-22T05:38:20.803Z,7.80
2022-10-22T05:42:24.318Z,7.80
2022-10-22T05:46:32.278Z,7.90
2022-10-22T05:50:39.171Z,7.90
2022-10-22T05:54:44.016Z,7.90
2022-10-22T05:58:47.937Z,8.00
2022-10-22T06:02:52.356Z,8.10
2022-10-22T06:06:57.185Z,8.20
2022-10-22T06:11:15.778Z,8.30
2022-10-22T06:15:20.364Z,8.40
2022-10-22T06:19:25.830Z,8.40
2022-10-22T06:23:30.520Z,8.40
2022-10-22T06:27:33.858Z,8.70
2022-10-22T06:31:37.763Z,8.80
2022-10-22T06:35:41.015Z,9.10
2022-10-22T06:39:45.664Z,9.30
2022-10-22T06:43:49.131Z,9.60
2022-10-22T06:47:52.424Z,9.60
2022-10-22T06:51:56.349Z,9.60
2022-10-22T06:56:01.042Z,9.80
2022-10-22T07:00:04.653Z,10.00
2022-10-22T07:04:09.135Z,10.20
2022-10-22T07:08:12.423Z,10.50
2022-10-22T07:12:17.545Z,10.60
2022-10-22T07:16:20.866Z,10.60
2022-10-22T07:20:24.220Z,10.70
2022-10-22T07:24:28.724Z,10.80
2022-10-22T07:28:33.673Z,10.90
2022-10-22T07:32:37.226Z,10.90
2022-10-22T07:36:40.497Z,11.00
2022-10-22T07:40:46.775Z,11.10
2022-10-22T07:44:51.476Z,11.20
2022-10-22T07:48:55.280Z,11.30
2022-10-22T07:52:58.631Z,11.40
2022-10-22T07:57:02.468Z,11.40
2022-10-22T08:01:07.507Z,11.40
2022-10-22T08:05:13.420Z,11.40
2022-10-22T08:09:16.789Z,11.60
2022-10-22T08:13:20.365Z,11.70
2022-10-22T08:17:25.084Z,11.70
2022-10-22T08:21:28.496Z,11.70
2022-10-22T08:25:31.851Z,11.70
2022-10-22T08:29:35.161Z,11.80
2022-10-22T08:33:40.205Z,11.90
2022-10-22T08:37:43.727Z,12.00
2022-10-22T08:41:55.412Z,12.10
2022-10-22T08:46:10.239Z,12.20
2022-10-22T08:50:20.460Z,12.30
2022-10-22T08:54:38.284Z,12.40
2022-10-22T08:58:48.511Z,12.50
2022-10-22T09:03:07.304Z,12.70
2022-10-22T09:07:12.585Z,12.70
2022-10-22T09:11:24.016Z,12.70
2022-10-22T09:15:28.183Z,12.90
2022-10-22T09:19:41.529Z,13.10
2022-10-22T09:23:57.670Z,13.20
2022-10-22T09:28:00.963Z,13.20
2022-10-22T09:32:07.309Z,13.30
2022-10-22T09:36:15.309Z,13.30
2022-10-22T09:40:20.523Z,13.40
2022-10-22T09:44:23.872Z,13.50
2022-10-22T09:48:34.496Z,13.50
2022-10-22T09:52:44.894Z,13.50
2022-10-22T09:56:58.269Z,13.60
2022-10-22T10:01:02.689Z,13.70
2022-10-22T10:05:07.050Z,13.70
2022-10-22T10:09:16.943Z,13.60
2022-10-22T10:13:48.567Z,13.60
2022-10-22T10:18:00.654Z,13.70
2022-10-22T10:22:15.515Z,13.70
2022-10-22T10:26:25.660Z,13.80
2022-10-22T10:30:31.425Z,13.90
2022-10-22T10:34:45.236Z,13.80
2022-10-22T10:38:57.912Z,13.90
2022-10-22T10:43:08.205Z,13.90
2022-10-22T10:47:21.735Z,13.90
2022-10-22T10:51:36.888Z,13.80
2022-10-22T10:55:50.826Z,13.90
2022-10-22T11:00:07.102Z,14.00
2022-10-22T11:04:25.981Z,14.00
2022-10-22T11:08:34.009Z,14.10
2022-10-22T11:12:43.703Z,14.10
2022-10-22T11:16:51.833Z,14.30
2022-10-22T11:21:08.556Z,14.40
2022-10-22T11:25:19.857Z,14.40
2022-10-22T11:29:32.035Z,14.80
2022-10-22T11:33:43.788Z,15.20
2022-10-22T11:37:49.583Z,15.50
2022-10-22T11:41:54.701Z,15.50
2022-10-22T11:46:09.784Z,15.60
2022-10-22T11:50:22.899Z,15.50
2022-10-22T11:54:43.518Z,15.50
2022-10-22T11:58:53.734Z,15.30
2022-10-22T12:03:06.117Z,15.10
2022-10-22T12:07:33.802Z,14.90
2022-10-22T12:11:41.617Z,14.90
2022-10-22T12:15:49.446Z,14.90
2022-10-22T12:20:02.073Z,14.90
2022-10-22T12:24:07.560Z,14.80
2022-10-22T12:28:14.390Z,14.70
2022-10-22T12:32:18.101Z,14.70
2022-10-22T12:36:21.395Z,14.60
2022-10-22T12:40:27.416Z,14.40
2022-10-22T12:44:34.353Z,14.30
2022-10-22T12:48:40.620Z,14.20
2022-10-22T12:52:44.445Z,14.20
2022-10-22T12:56:49.375Z,14.10
2022-10-22T13:01:01.989Z,14.20
2022-10-22T13:05:16.478Z,14.10
2022-10-22T13:09:25.158Z,14.10
2022-10-22T13:13:32.896Z,14.10
2022-10-22T13:17:42.501Z,14.20
2022-10-22T13:21:50.272Z,14.20
2022-10-22T13:26:01.903Z,14.10
2022-10-22T13:30:18.776Z,14.20
2022-10-22T13:34:25.812Z,14.10
2022-10-22T13:38:30.260Z,14.10
2022-10-22T13:42:34.009Z,14.00
2022-10-22T13:46:42.937Z,14.00
2022-10-22T13:50:48.136Z,13.90
2022-10-22T13:54:51.489Z,13.90
2022-10-22T13:58:54.848Z,13.90
2022-10-22T14:03:00.196Z,13.90
2022-10-22T14:07:04.995Z,13.80
2022-10-22T14:11:10.131Z,13.70
2022-10-22T14:15:16.149Z,13.70
2022-10-22T14:19:19.774Z,13.70
2022-10-22T14:23:26.733Z,13.60
2022-10-22T14:27:30.109Z,13.70
2022-10-22T14:31:33.920Z,13.50
2022-10-22T14:35:37.305Z,13.50
2022-10-22T14:39:52.781Z,13.40
2022-10-22T14:43:56.682Z,13.40
2022-10-22T14:48:00.412Z,13.30
2022-10-22T14:52:04.927Z,13.30
2022-10-22T14:56:17.940Z,13.40
2022-10-22T15:00:22.589Z,13.40
2022-10-22T15:04:27.842Z,13.40
2022-10-22T15:08:41.780Z,13.40
2022-10-22T15:12:47.352Z,13.30
2022-10-22T15:16:51.432Z,13.20
2022-10-22T15:20:59.968Z,13.20
2022-10-22T15:25:04.367Z,13.20
2022-10-22T15:29:09.590Z,13.20
2022-10-22T15:33:13.243Z,13.30
2022-10-22T15:37:16.840Z,13.20
2022-10-22T15:41:20.693Z,13.30
2022-10-22T15:45:25.982Z,13.30
2022-10-22T15:49:30.118Z,13.30
2022-10-22T15:53:33.694Z,13.30
2022-10-22T15:57:37.061Z,13.30
2022-10-22T16:01:42.453Z,13.40
2022-10-22T16:05:54.486Z,13.50
2022-10-22T16:09:58.850Z,13.50
2022-10-22T16:14:02.402Z,13.40
2022-10-22T16:18:07.885Z,13.40
2022-10-22T16:22:14.252Z,13.30
2022-10-22T16:26:18.834Z,13.20
2022-10-22T16:30:22.238Z,13.20
2022-10-22T16:34:29.668Z,13.30
2022-10-22T16:38:33.510Z,13.30
2022-10-22T16:42:37.226Z,13.20
2022-10-22T16:46:40.973Z,13.20
2022-10-22T16:50:47.412Z,13.20
2022-10-22T16:54:51.162Z,13.10
2022-10-22T16:58:56.702Z,12.90
2022-10-22T17:03:01.150Z,12.80
2022-10-22T17:07:07.141Z,12.50
2022-10-22T17:11:13.488Z,12.50
2022-10-22T17:15:18.832Z,12.40
2022-10-22T17:19:24.573Z,12.20
2022-10-22T17:23:33.270Z,12.10
2022-10-22T17:27:38.304Z,11.90
2022-10-22T17:31:44.291Z,11.80
2022-10-22T17:35:54.054Z,11.50
2022-10-22T17:40:02.296Z,11.40
2022-10-22T17:44:14.066Z,11.30
2022-10-22T17:48:20.245Z,11.20
2022-10-22T17:52:25.861Z,11.10
2022-10-22T17:56:32.183Z,11.00
2022-10-22T18:00:38.461Z,10.80
2022-10-22T18:04:45.443Z,10.80
2022-10-22T18:13:03.670Z,10.90
2022-10-22T18:17:08.467Z,10.80
2022-10-22T18:21:26.021Z,10.60
2022-10-22T18:25:36.743Z,10.40
2022-10-22T18:29:48.716Z,10.40
2022-10-22T18:37:59.408Z,10.20
2022-10-22T18:42:08.240Z,10.40
2022-10-22T18:46:18.391Z,10.40
2022-10-22T18:50:24.301Z,10.30
2022-10-22T18:54:30.600Z,10.30
2022-10-22T18:58:40.408Z,10.30
2022-10-22T19:02:47.223Z,10.50
2022-10-22T19:06:52.580Z,10.90
2022-10-22T19:11:01.816Z,11.00
2022-10-22T19:15:08.427Z,11.10
2022-10-22T19:19:18.866Z,11.00
2022-10-22T19:23:23.806Z,11.00
2022-10-22T19:27:36.115Z,10.90
2022-10-22T19:31:44.375Z,10.60
2022-10-22T19:35:52.194Z,10.30
2022-10-22T19:39:57.362Z,10.00
2022-10-22T19:44:08.715Z,9.90
2022-10-22T19:48:13.470Z,9.80
2022-10-22T19:52:19.392Z,9.70
2022-10-22T19:56:25.234Z,9.70
2022-10-22T20:00:30.435Z,9.60
2022-10-22T20:04:34.806Z,9.50
2022-10-22T20:08:40.834Z,9.30
2022-10-22T20:12:46.107Z,9.40
2022-10-22T20:16:53.467Z,9.60
2022-10-22T20:20:57.632Z,10.00
2022-10-22T20:25:02.513Z,10.20
2022-10-22T20:29:06.722Z,9.80
2022-10-22T20:33:10.337Z,9.80
2022-10-22T20:37:14.597Z,10.20
2022-10-22T20:41:23.628Z,9.70
2022-10-22T20:45:31.308Z,9.30
2022-10-22T20:49:37.860Z,9.10
2022-10-22T20:53:41.833Z,9.00
2022-10-22T20:57:53.276Z,8.80
2022-10-22T21:01:57.293Z,8.60
2022-10-22T21:06:00.664Z,8.50
2022-10-22T21:10:04.257Z,8.40
2022-10-22T21:14:11.040Z,8.40
2022-10-22T21:18:14.526Z,8.40
2022-10-22T21:22:17.816Z,8.30
2022-10-22T21:26:21.915Z,8.30
2022-10-22T21:30:26.665Z,8.20
2022-10-22T21:34:30.129Z,8.20
2022-10-22T21:38:33.886Z,8.10
2022-10-22T21:42:37.330Z,8.10
2022-10-22T21:46:42.032Z,8.10
2022-10-22T21:50:45.885Z,8.30
2022-10-22T21:54:49.241Z,8.70
2022-10-22T21:59:35.934Z,9.10
2022-10-22T22:03:43.407Z,8.70
2022-10-22T22:07:47.052Z,8.40
2022-10-22T22:11:50.379Z,8.20
2022-10-22T22:15:53.919Z,8.00
2022-10-22T22:19:58.673Z,8.00
2022-10-22T22:24:02.070Z,8.00
2022-10-22T22:28:05.775Z,8.00
2022-10-22T22:32:09.190Z,8.00
2022-10-22T22:36:14.010Z,8.00
2022-10-22T22:40:26.171Z,8.10
2022-10-22T22:44:30.767Z,8.20
2022-10-22T22:48:34.414Z,8.30
2022-10-22T22:52:39.335Z,8.40
2022-10-22T22:56:42.860Z,8.50
2022-10-22T23:01:17.862Z,8.60
2022-10-22T23:05:21.317Z,8.70
2022-10-22T23:09:26.240Z,8.70
2022-10-22T23:13:29.548Z,8.80
2022-10-22T23:17:33.020Z,8.70
2022-10-22T23:21:38.763Z,8.70
2022-10-22T23:25:43.568Z,8.70
2022-10-22T23:29:47.313Z,8.60
2022-10-22T23:33:51.030Z,8.70
2022-10-22T23:37:54.488Z,8.70
2022-10-22T23:41:59.858Z,8.80
2022-10-22T23:46:03.576Z,8.90
2022-10-22T23:50:07.774Z,9.00
2022-10-22T23:54:13.844Z,9.00
2022-10-22T23:58:18.641Z,9.00
